createdAt,value
2018-02-22T00:00:37.554Z,0
2018-02-22T00:01:37.489Z,0
2018-02-22T00:02:37.259Z,0
2018-02-22T00:03:37.700Z,0
2018-02-22T00:04:37.424Z,0
2018-02-22T00:05:37.391Z,0
2018-02-22T00:06:37.114Z,0
2018-02-22T00:07:37.406Z,0
2018-02-22T00:08:37.337Z,0
2018-02-22T00:09:37.308Z,0
2018-02-22T00:10:37.540Z,0
2018-02-22T00:11:37.259Z,0
2018-02-22T00:12:37.234Z,0
2018-02-22T00:13:37.496Z,0
2018-02-22T00:14:37.453Z,0
2018-02-22T00:15:36.961Z,0
2018-02-22T00:16:37.142Z,0
2018-02-22T00:17:37.128Z,0
2018-02-22T00:18:37.109Z,0
2018-02-22T00:19:36.834Z,0
2018-02-22T00:20:37.071Z,0
2018-02-22T00:21:37.297Z,0
2018-02-22T00:22:36.506Z,0
2018-02-22T00:23:37.251Z,0
2018-02-22T00:24:37.221Z,0
2018-02-22T00:25:36.954Z,0
2018-02-22T00:26:36.923Z,0
2018-02-22T00:27:36.642Z,0
2018-02-22T00:28:36.625Z,0
2018-02-22T00:29:36.864Z,0
2018-02-22T00:30:36.580Z,0
2018-02-22T00:31:37.071Z,0
2018-02-22T00:32:37.044Z,0
2018-02-22T00:33:36.504Z,0
2018-02-22T00:34:36.745Z,0
2018-02-22T00:35:36.973Z,0
2018-02-22T00:36:36.694Z,0
2018-02-22T00:37:36.927Z,0
2018-02-22T00:38:36.646Z,0
2018-02-22T00:39:36.364Z,0
2018-02-22T00:40:36.342Z,0
2018-02-22T00:41:36.317Z,0
2018-02-22T00:42:36.560Z,0
2018-02-22T00:43:36.792Z,0
2018-02-22T00:44:36.509Z,0
2018-02-22T00:45:36.232Z,0
2018-02-22T00:46:36.719Z,0
2018-02-22T00:47:36.706Z,0
2018-02-22T00:48:36.454Z,0
2018-02-22T00:49:36.137Z,0
2018-02-22T00:50:36.631Z,0
2018-02-22T00:51:36.342Z,0
2018-02-22T00:52:36.580Z,0
2018-02-22T00:53:36.045Z,0
2018-02-22T00:54:36.272Z,0
2018-02-22T00:55:36.260Z,0
2018-02-22T00:56:36.486Z,0
2018-02-22T00:57:35.694Z,0
2018-02-22T00:58:36.442Z,0
2018-02-22T00:59:36.424Z,0
2018-02-22T01:00:36.406Z,0
2018-02-22T01:01:36.375Z,0
2018-02-22T01:02:35.578Z,0
2018-02-22T01:03:35.815Z,0
2018-02-22T01:04:36.107Z,0
2018-02-22T01:05:36.030Z,0
2018-02-22T01:06:35.487Z,0
2018-02-22T01:07:36.238Z,0
2018-02-22T01:08:36.021Z,0
2018-02-22T01:09:36.198Z,0
2018-02-22T01:10:36.167Z,0
2018-02-22T01:11:36.147Z,0
2018-02-22T01:12:35.886Z,0
2018-02-22T01:13:35.842Z,0
2018-02-22T01:14:35.303Z,0
2018-02-22T01:15:35.798Z,0
2018-02-22T01:16:35.773Z,0
2018-02-22T01:17:36.004Z,0
2018-02-22T01:18:35.724Z,0
2018-02-22T01:19:35.905Z,0
2018-02-22T01:20:35.160Z,0
2018-02-22T01:21:35.926Z,0
2018-02-22T01:22:35.116Z,0
2018-02-22T01:23:35.606Z,0
2018-02-22T01:24:35.584Z,0
2018-02-22T01:25:35.303Z,0
2018-02-22T01:26:35.542Z,0
2018-02-22T01:27:35.519Z,0
2018-02-22T01:28:35.239Z,0
2018-02-22T01:29:35.475Z,0
2018-02-22T01:30:35.447Z,0
2018-02-22T01:31:35.429Z,0
2018-02-22T01:32:35.146Z,0
2018-02-22T01:33:35.392Z,0
2018-02-22T01:34:34.844Z,0
2018-02-22T01:35:35.078Z,0
2018-02-22T01:36:35.063Z,0
2018-02-22T01:37:35.032Z,0
2018-02-22T01:38:35.317Z,0
2018-02-22T01:39:35.244Z,0
2018-02-22T01:40:35.223Z,0
2018-02-22T01:41:35.460Z,0
2018-02-22T01:42:35.178Z,0
2018-02-22T01:43:35.144Z,0
2018-02-22T01:44:35.123Z,0
2018-02-22T01:45:35.109Z,0
2018-02-22T01:46:35.080Z,0
2018-02-22T01:47:34.541Z,0
2018-02-22T01:48:34.782Z,0
2018-02-22T01:49:35.009Z,0
2018-02-22T01:50:34.735Z,0
2018-02-22T01:51:34.976Z,0
2018-02-22T01:52:34.685Z,0
2018-02-22T01:53:34.938Z,0
2018-02-22T01:54:34.641Z,0
2018-02-22T01:55:34.630Z,0
2018-02-22T01:56:34.860Z,0
2018-02-22T01:57:34.572Z,0
2018-02-22T01:58:34.808Z,0
2018-02-22T01:59:34.783Z,0
2018-02-22T02:00:35.019Z,0
2018-02-22T02:01:34.997Z,0
2018-02-22T02:02:34.452Z,0
2018-02-22T02:03:34.948Z,0
2018-02-22T02:04:34.675Z,0
2018-02-22T02:05:34.383Z,0
2018-02-22T02:06:34.880Z,0
2018-02-22T02:07:34.895Z,0
2018-02-22T02:08:34.838Z,0
2018-02-22T02:09:34.037Z,0
2018-02-22T02:10:34.014Z,0
2018-02-22T02:11:34.512Z,0
2018-02-22T02:12:34.487Z,0
2018-02-22T02:13:34.460Z,0
2018-02-22T02:14:34.434Z,0
2018-02-22T02:15:34.675Z,0
2018-02-22T02:16:34.646Z,0
2018-02-22T02:17:34.631Z,0
2018-02-22T02:18:33.828Z,0
2018-02-22T02:19:34.325Z,0
2018-02-22T02:20:34.308Z,0
2018-02-22T02:21:33.754Z,0
2018-02-22T02:22:34.511Z,0
2018-02-22T02:23:34.231Z,0
2018-02-22T02:24:34.234Z,0
2018-02-22T02:25:34.287Z,0
2018-02-22T02:26:33.902Z,0
2018-02-22T02:27:33.879Z,0
2018-02-22T02:28:34.369Z,0
2018-02-22T02:29:34.096Z,0
2018-02-22T02:30:34.085Z,0
2018-02-22T02:31:34.062Z,0
2018-02-22T02:32:33.775Z,0
2018-02-22T02:33:34.044Z,0
2018-02-22T02:34:34.003Z,0
2018-02-22T02:35:33.964Z,0
2018-02-22T02:36:34.222Z,0
2018-02-22T02:37:33.908Z,0
2018-02-22T02:38:33.883Z,0
2018-02-22T02:39:33.869Z,0
2018-02-22T02:40:33.584Z,0
2018-02-22T02:41:34.083Z,0
2018-02-22T02:42:33.531Z,0
2018-02-22T02:43:33.512Z,0
2018-02-22T02:44:33.752Z,0
2018-02-22T02:45:34.056Z,0
2018-02-22T02:46:33.701Z,0
2018-02-22T02:47:33.671Z,0
2018-02-22T02:48:33.916Z,0
2018-02-22T02:49:33.628Z,0
2018-02-22T02:50:33.350Z,0
2018-02-22T02:51:33.575Z,0
2018-02-22T02:52:33.558Z,0
2018-02-22T02:53:33.282Z,0
2018-02-22T02:54:33.771Z,0
2018-02-22T02:55:33.746Z,0
2018-02-22T02:56:33.728Z,0
2018-02-22T02:57:33.698Z,0
2018-02-22T02:58:33.687Z,0
2018-02-22T02:59:33.654Z,0
2018-02-22T03:00:33.359Z,0
2018-02-22T03:01:33.609Z,0
2018-02-22T03:02:33.325Z,0
2018-02-22T03:03:33.046Z,0
2018-02-22T03:04:33.535Z,0
2018-02-22T03:05:33.247Z,0
2018-02-22T03:06:33.232Z,0
2018-02-22T03:07:33.459Z,0
2018-02-22T03:08:33.441Z,0
2018-02-22T03:09:33.415Z,0
2018-02-22T03:10:33.139Z,0
2018-02-22T03:11:33.114Z,0
2018-02-22T03:12:32.825Z,0
2018-02-22T03:13:33.064Z,0
2018-02-22T03:14:32.781Z,0
2018-02-22T03:15:33.018Z,0
2018-02-22T03:16:32.738Z,0
2018-02-22T03:17:32.970Z,0
2018-02-22T03:18:32.943Z,0
2018-02-22T03:19:32.916Z,0
2018-02-22T03:20:32.642Z,0
2018-02-22T03:21:32.872Z,0
2018-02-22T03:22:32.854Z,0
2018-02-22T03:23:33.086Z,0
2018-02-22T03:24:32.808Z,0
2018-02-22T03:25:32.780Z,0
2018-02-22T03:26:32.764Z,0
2018-02-22T03:27:32.987Z,0
2018-02-22T03:28:32.968Z,0
2018-02-22T03:29:32.432Z,0
2018-02-22T03:30:32.933Z,0
2018-02-22T03:31:32.383Z,0
2018-02-22T03:32:32.873Z,0
2018-02-22T03:33:32.849Z,0
2018-02-22T03:34:32.311Z,0
2018-02-22T03:35:32.344Z,0
2018-02-22T03:36:32.262Z,0
2018-02-22T03:37:32.494Z,0
2018-02-22T03:38:32.215Z,0
2018-02-22T03:39:32.191Z,0
2018-02-22T03:40:32.431Z,0
2018-02-22T03:41:32.414Z,0
2018-02-22T03:42:32.139Z,0
2018-02-22T03:43:32.356Z,0
2018-02-22T03:44:31.817Z,0
2018-02-22T03:45:32.309Z,0
2018-02-22T03:46:32.339Z,0
2018-02-22T03:47:32.268Z,0
2018-02-22T03:48:32.244Z,0
2018-02-22T03:49:31.957Z,0
2018-02-22T03:50:32.192Z,0
2018-02-22T03:51:32.425Z,0
2018-02-22T03:52:32.401Z,0
2018-02-22T03:53:31.872Z,0
2018-02-22T03:54:32.568Z,0
2018-02-22T03:55:32.342Z,0
2018-02-22T03:56:32.313Z,0
2018-02-22T03:57:32.080Z,0
2018-02-22T03:58:31.758Z,0
2018-02-22T03:59:32.243Z,0
2018-02-22T04:00:31.955Z,0
2018-02-22T04:01:31.684Z,0
2018-02-22T04:02:32.179Z,0
2018-02-22T04:03:31.886Z,0
2018-02-22T04:04:32.130Z,0
2018-02-22T04:05:31.847Z,0
2018-02-22T04:06:31.820Z,0
2018-02-22T04:07:32.071Z,0
2018-02-22T04:08:31.771Z,0
2018-02-22T04:09:31.750Z,0
2018-02-22T04:10:31.208Z,0
2018-02-22T04:11:31.702Z,0
2018-02-22T04:12:31.677Z,0
2018-02-22T04:13:31.652Z,0
2018-02-22T04:14:31.632Z,0
2018-02-22T04:15:31.861Z,0
2018-02-22T04:16:31.586Z,0
2018-02-22T04:17:31.564Z,0
2018-02-22T04:18:31.540Z,0
2018-02-22T04:19:31.253Z,0
2018-02-22T04:20:31.231Z,0
2018-02-22T04:21:31.481Z,0
2018-02-22T04:22:31.714Z,0
2018-02-22T04:23:31.168Z,0
2018-02-22T04:24:31.396Z,0
2018-02-22T04:25:31.635Z,0
2018-02-22T04:26:30.833Z,0
2018-02-22T04:27:31.327Z,0
2018-02-22T04:28:30.784Z,0
2018-02-22T04:29:31.281Z,0
2018-02-22T04:30:31.512Z,0
2018-02-22T04:31:31.232Z,0
2018-02-22T04:32:31.537Z,0
2018-02-22T04:33:30.931Z,0
2018-02-22T04:34:30.908Z,0
2018-02-22T04:35:31.132Z,0
2018-02-22T04:36:31.397Z,0
2018-02-22T04:37:31.097Z,0
2018-02-22T04:38:31.320Z,0
2018-02-22T04:39:31.304Z,0
2018-02-22T04:40:31.020Z,0
2018-02-22T04:41:31.274Z,0
2018-02-22T04:42:31.236Z,0
2018-02-22T04:43:31.218Z,0
2018-02-22T04:44:31.188Z,0
2018-02-22T04:45:30.907Z,0
2018-02-22T04:46:31.139Z,0
2018-02-22T04:47:31.116Z,0
2018-02-22T04:48:31.102Z,0
2018-02-22T04:49:30.551Z,0
2018-02-22T04:50:30.876Z,0
2018-02-22T04:51:31.019Z,0
2018-02-22T04:52:30.741Z,0
2018-02-22T04:53:30.720Z,0
2018-02-22T04:54:30.952Z,0
2018-02-22T04:55:30.411Z,0
2018-02-22T04:56:30.902Z,0
2018-02-22T04:57:30.418Z,0
2018-02-22T04:58:30.344Z,0
2018-02-22T04:59:30.836Z,0
2018-02-22T05:00:30.806Z,0
2018-02-22T05:01:30.019Z,0
2018-02-22T05:02:30.514Z,0
2018-02-22T05:03:30.476Z,0
2018-02-22T05:04:30.722Z,0
2018-02-22T05:05:30.434Z,0
2018-02-22T05:06:30.408Z,0
2018-02-22T05:07:30.649Z,0
2018-02-22T05:08:30.366Z,0
2018-02-22T05:09:30.346Z,0
2018-02-22T05:10:30.584Z,0
2018-02-22T05:11:30.292Z,0
2018-02-22T05:12:30.267Z,0
2018-02-22T05:13:30.257Z,0
2018-02-22T05:14:29.964Z,0
2018-02-22T05:15:30.463Z,0
2018-02-22T05:16:29.659Z,0
2018-02-22T05:17:30.419Z,0
2018-02-22T05:18:30.398Z,0
2018-02-22T05:19:30.364Z,0
2018-02-22T05:20:30.085Z,0
2018-02-22T05:21:30.062Z,0
2018-02-22T05:22:30.031Z,0
2018-02-22T05:23:30.023Z,0
2018-02-22T05:24:29.728Z,0
2018-02-22T05:25:29.963Z,0
2018-02-22T05:26:29.940Z,0
2018-02-22T05:27:29.663Z,0
2018-02-22T05:28:30.160Z,0
2018-02-22T05:29:29.977Z,0
2018-02-22T05:30:30.152Z,0
2018-02-22T05:31:29.570Z,0
2018-02-22T05:32:29.804Z,0
2018-02-22T05:33:30.031Z,0
2018-02-22T05:34:29.624Z,0
2018-02-22T05:35:29.738Z,0
2018-02-22T05:36:29.714Z,0
2018-02-22T05:37:29.943Z,0
2018-02-22T05:38:29.660Z,0
2018-02-22T05:39:29.630Z,0
2018-02-22T05:40:29.872Z,0
2018-02-22T05:41:29.590Z,0
2018-02-22T05:42:29.382Z,0
2018-02-22T05:43:29.538Z,0
2018-02-22T05:44:29.265Z,0
2018-02-22T05:45:28.986Z,0
2018-02-22T05:46:29.730Z,0
2018-02-22T05:47:29.191Z,0
2018-02-22T05:48:28.909Z,0
2018-02-22T05:49:28.883Z,0
2018-02-22T05:50:29.119Z,0
2018-02-22T05:51:29.617Z,0
2018-02-22T05:52:28.811Z,0
2018-02-22T05:53:29.044Z,0
2018-02-22T05:54:29.284Z,0
2018-02-22T05:55:29.326Z,0
2018-02-22T05:56:28.976Z,0
2018-02-22T05:57:28.698Z,0
2018-02-22T05:58:29.189Z,0
2018-02-22T05:59:29.428Z,0
2018-02-22T06:00:28.625Z,0
2018-02-22T06:01:29.114Z,0
2018-02-22T06:02:29.093Z,0
2018-02-22T06:03:29.080Z,0
2018-02-22T06:04:29.314Z,5
2018-02-22T06:05:29.277Z,5
2018-02-22T06:06:29.282Z,5
2018-02-22T06:07:28.727Z,5
2018-02-22T06:08:29.214Z,5
2018-02-22T06:09:28.928Z,5
2018-02-22T06:10:28.905Z,5
2018-02-22T06:11:29.141Z,10
2018-02-22T06:12:28.857Z,10
2018-02-22T06:13:29.091Z,10
2018-02-22T06:14:28.810Z,10
2018-02-22T06:15:29.042Z,10
2018-02-22T06:16:28.499Z,10
2018-02-22T06:17:28.742Z,15
2018-02-22T06:18:28.719Z,15
2018-02-22T06:19:29.047Z,15
2018-02-22T06:20:28.409Z,15
2018-02-22T06:21:28.895Z,15
2018-02-22T06:22:28.876Z,20
2018-02-22T06:23:28.598Z,20
2018-02-22T06:24:28.572Z,20
2018-02-22T06:25:28.296Z,20
2018-02-22T06:26:28.534Z,20
2018-02-22T06:27:28.753Z,25
2018-02-22T06:28:28.475Z,25
2018-02-22T06:29:28.706Z,25
2018-02-22T06:30:28.692Z,25
2018-02-22T06:31:27.893Z,30
2018-02-22T06:32:28.388Z,30
2018-02-22T06:33:28.626Z,30
2018-02-22T06:34:28.594Z,30
2018-02-22T06:35:28.056Z,30
2018-02-22T06:36:29.563Z,35
2018-02-22T06:37:28.001Z,35
2018-02-22T06:38:28.502Z,35
2018-02-22T06:39:28.484Z,35
2018-02-22T06:40:28.452Z,35
2018-02-22T06:41:28.428Z,40
2018-02-22T06:42:28.409Z,40
2018-02-22T06:43:28.123Z,40
2018-02-22T06:44:28.356Z,40
2018-02-22T06:45:27.818Z,45
2018-02-22T06:46:28.306Z,45
2018-02-22T06:47:27.765Z,45
2018-02-22T06:48:28.002Z,45
2018-02-22T06:49:27.720Z,45
2018-02-22T06:50:27.952Z,50
2018-02-22T06:51:28.191Z,50
2018-02-22T06:52:27.940Z,50
2018-02-22T06:53:27.888Z,50
2018-02-22T06:54:28.123Z,50
2018-02-22T06:55:27.836Z,50
2018-02-22T06:56:27.808Z,55
2018-02-22T06:57:28.054Z,55
2018-02-22T06:58:27.764Z,55
2018-02-22T06:59:27.491Z,55
2018-02-22T07:00:27.718Z,55
2018-02-22T07:01:27.711Z,55
2018-02-22T07:02:27.674Z,60
2018-02-22T07:03:27.907Z,60
2018-02-22T07:04:27.894Z,60
2018-02-22T07:05:27.601Z,60
2018-02-22T07:06:27.836Z,60
2018-02-22T07:07:27.808Z,65
2018-02-22T07:08:27.537Z,65
2018-02-22T07:09:27.762Z,65
2018-02-22T07:10:27.750Z,65
2018-02-22T07:11:27.476Z,65
2018-02-22T07:12:27.692Z,65
2018-02-22T07:13:27.700Z,65
2018-02-22T07:14:27.392Z,70
2018-02-22T07:15:27.365Z,70
2018-02-22T07:16:27.352Z,70
2018-02-22T07:17:27.322Z,70
2018-02-22T07:18:27.555Z,70
2018-02-22T07:19:27.271Z,70
2018-02-22T07:20:27.252Z,70
2018-02-22T07:21:27.227Z,75
2018-02-22T07:22:27.458Z,75
2018-02-22T07:23:27.004Z,75
2018-02-22T07:24:27.157Z,75
2018-02-22T07:25:27.137Z,75
2018-02-22T07:26:27.109Z,75
2018-02-22T07:27:26.828Z,75
2018-02-22T07:28:26.808Z,75
2018-02-22T07:29:27.036Z,80
2018-02-22T07:30:26.504Z,80
2018-02-22T07:31:26.221Z,80
2018-02-22T07:32:26.971Z,80
2018-02-22T07:33:26.689Z,80
2018-02-22T07:34:26.672Z,80
2018-02-22T07:35:26.909Z,80
2018-02-22T07:36:27.136Z,80
2018-02-22T07:37:26.598Z,80
2018-02-22T07:38:27.098Z,85
2018-02-22T07:39:26.560Z,85
2018-02-22T07:40:27.044Z,85
2018-02-22T07:41:26.761Z,85
2018-02-22T07:42:26.742Z,85
2018-02-22T07:43:26.979Z,85
2018-02-22T07:44:26.695Z,85
2018-02-22T07:45:26.669Z,85
2018-02-22T07:46:26.903Z,85
2018-02-22T07:47:26.379Z,85
2018-02-22T07:48:26.338Z,85
2018-02-22T07:49:26.581Z,90
2018-02-22T07:50:26.813Z,90
2018-02-22T07:51:26.532Z,90
2018-02-22T07:52:25.996Z,90
2018-02-22T07:53:26.484Z,90
2018-02-22T07:54:26.459Z,90
2018-02-22T07:55:26.437Z,90
2018-02-22T07:56:26.158Z,90
2018-02-22T07:57:26.395Z,90
2018-02-22T07:58:26.111Z,90
2018-02-22T07:59:26.356Z,90
2018-02-22T08:00:26.066Z,95
2018-02-22T08:01:26.350Z,95
2018-02-22T08:02:26.026Z,95
2018-02-22T08:03:26.262Z,95
2018-02-22T08:04:26.493Z,95
2018-02-22T08:05:26.472Z,95
2018-02-22T08:06:26.191Z,95
2018-02-22T08:07:25.908Z,95
2018-02-22T08:08:26.141Z,95
2018-02-22T08:09:26.121Z,95
2018-02-22T08:10:26.357Z,100
2018-02-22T08:11:25.822Z,100
2018-02-22T08:12:26.058Z,100
2018-02-22T08:13:26.030Z,100
2018-02-22T08:14:26.286Z,100
2018-02-22T08:15:26.428Z,100
2018-02-22T08:16:26.225Z,100
2018-02-22T08:17:26.205Z,100
2018-02-22T08:18:25.665Z,100
2018-02-22T08:19:26.156Z,100
2018-02-22T08:20:25.881Z,105
2018-02-22T08:21:25.334Z,105
2018-02-22T08:22:26.084Z,105
2018-02-22T08:23:26.065Z,105
2018-02-22T08:24:25.794Z,105
2018-02-22T08:25:25.764Z,105
2018-02-22T08:26:26.009Z,105
2018-02-22T08:27:25.724Z,105
2018-02-22T08:28:26.007Z,105
2018-02-22T08:29:25.417Z,110
2018-02-22T08:30:25.395Z,110
2018-02-22T08:31:25.625Z,110
2018-02-22T08:32:25.888Z,110
2018-02-22T08:33:25.327Z,110
2018-02-22T08:34:25.562Z,110
2018-02-22T08:35:25.798Z,110
2018-02-22T08:36:25.558Z,110
2018-02-22T08:37:25.498Z,110
2018-02-22T08:38:25.473Z,110
2018-02-22T08:39:25.238Z,110
2018-02-22T08:40:25.174Z,110
2018-02-22T08:41:25.150Z,110
2018-02-22T08:42:24.870Z,110
2018-02-22T08:43:25.653Z,110
2018-02-22T08:44:24.828Z,110
2018-02-22T08:45:25.324Z,110
2018-02-22T08:46:25.316Z,115
2018-02-22T08:47:25.533Z,115
2018-02-22T08:48:25.255Z,110
2018-02-22T08:49:25.234Z,115
2018-02-22T08:50:25.477Z,115
2018-02-22T08:51:25.451Z,115
2018-02-22T08:52:25.174Z,115
2018-02-22T08:53:25.147Z,115
2018-02-22T08:54:25.381Z,115
2018-02-22T08:55:25.137Z,115
2018-02-22T08:56:25.088Z,115
2018-02-22T08:57:25.060Z,115
2018-02-22T08:58:25.044Z,115
2018-02-22T08:59:24.804Z,115
2018-02-22T09:00:25.002Z,115
2018-02-22T09:01:24.722Z,115
2018-02-22T09:02:25.214Z,115
2018-02-22T09:03:24.941Z,120
2018-02-22T09:04:24.657Z,120
2018-02-22T09:05:25.151Z,120
2018-02-22T09:06:24.867Z,120
2018-02-22T09:07:25.103Z,120
2018-02-22T09:08:24.823Z,115
2018-02-22T09:09:24.544Z,115
2018-02-22T09:10:25.042Z,115
2018-02-22T09:11:24.762Z,115
2018-02-22T09:12:24.748Z,120
2018-02-22T09:13:24.464Z,120
2018-02-22T09:14:24.440Z,120
2018-02-22T09:15:24.930Z,120
2018-02-22T09:16:24.920Z,120
2018-02-22T09:17:24.376Z,120
2018-02-22T09:18:24.357Z,120
2018-02-22T09:19:24.596Z,120
2018-02-22T09:20:24.321Z,125
2018-02-22T09:21:24.548Z,125
2018-02-22T09:22:24.525Z,125
2018-02-22T09:23:23.997Z,125
2018-02-22T09:24:24.488Z,125
2018-02-22T09:25:24.463Z,125
2018-02-22T09:26:24.481Z,130
2018-02-22T09:27:24.683Z,130
2018-02-22T09:28:23.889Z,130
2018-02-22T09:29:24.432Z,130
2018-02-22T09:30:24.620Z,135
2018-02-22T09:31:24.605Z,135
2018-02-22T09:32:24.333Z,130
2018-02-22T09:33:23.785Z,130
2018-02-22T09:34:24.020Z,130
2018-02-22T09:35:24.264Z,130
2018-02-22T09:36:24.236Z,130
2018-02-22T09:37:23.960Z,130
2018-02-22T09:38:24.459Z,130
2018-02-22T09:39:24.434Z,130
2018-02-22T09:40:23.902Z,130
2018-02-22T09:41:24.132Z,130
2018-02-22T09:42:24.120Z,130
2018-02-22T09:43:24.095Z,130
2018-02-22T09:44:24.333Z,125
2018-02-22T09:45:23.791Z,130
2018-02-22T09:46:23.773Z,130
2018-02-22T09:47:24.014Z,130
2018-02-22T09:48:23.995Z,130
2018-02-22T09:49:23.969Z,130
2018-02-22T09:50:24.331Z,130
2018-02-22T09:51:23.942Z,130
2018-02-22T09:52:24.177Z,135
2018-02-22T09:53:24.174Z,135
2018-02-22T09:54:23.880Z,135
2018-02-22T09:55:23.588Z,135
2018-02-22T09:56:23.835Z,140
2018-02-22T09:57:23.555Z,140
2018-02-22T09:58:24.047Z,140
2018-02-22T09:59:23.767Z,135
2018-02-22T10:00:23.233Z,135
2018-02-22T10:01:23.477Z,130
2018-02-22T10:02:23.705Z,130
2018-02-22T10:03:23.686Z,130
2018-02-22T10:04:23.671Z,130
2018-02-22T10:05:23.906Z,130
2018-02-22T10:06:23.475Z,130
2018-02-22T10:07:23.868Z,130
2018-02-22T10:08:23.597Z,135
2018-02-22T10:09:23.828Z,140
2018-02-22T10:10:23.551Z,145
2018-02-22T10:11:23.274Z,150
2018-02-22T10:12:23.252Z,155
2018-02-22T10:13:23.496Z,155
2018-02-22T10:14:23.470Z,155
2018-02-22T10:15:23.457Z,150
2018-02-22T10:16:23.181Z,150
2018-02-22T10:17:22.895Z,150
2018-02-22T10:18:23.650Z,150
2018-02-22T10:19:23.376Z,150
2018-02-22T10:20:23.359Z,150
2018-02-22T10:21:23.594Z,150
2018-02-22T10:22:23.319Z,150
2018-02-22T10:23:23.293Z,155
2018-02-22T10:24:22.760Z,150
2018-02-22T10:25:23.517Z,175
2018-02-22T10:26:23.497Z,170
2018-02-22T10:27:23.303Z,155
2018-02-22T10:28:23.460Z,160
2018-02-22T10:29:22.919Z,165
2018-02-22T10:30:23.158Z,165
2018-02-22T10:31:23.144Z,155
2018-02-22T10:32:23.384Z,135
2018-02-22T10:33:22.583Z,150
2018-02-22T10:34:23.086Z,150
2018-02-22T10:35:23.322Z,155
2018-02-22T10:36:23.050Z,150
2018-02-22T10:37:22.764Z,150
2018-02-22T10:38:23.020Z,150
2018-02-22T10:39:22.471Z,150
2018-02-22T10:40:22.707Z,150
2018-02-22T10:41:22.686Z,160
2018-02-22T10:42:22.410Z,155
2018-02-22T10:43:22.392Z,150
2018-02-22T10:44:23.152Z,150
2018-02-22T10:45:22.879Z,150
2018-02-22T10:46:23.108Z,150
2018-02-22T10:47:22.841Z,150
2018-02-22T10:48:23.070Z,150
2018-02-22T10:49:23.219Z,150
2018-02-22T10:50:23.029Z,150
2018-02-22T10:51:23.015Z,150
2018-02-22T10:52:22.475Z,150
2018-02-22T10:53:22.723Z,150
2018-02-22T10:54:22.972Z,155
2018-02-22T10:55:22.938Z,150
2018-02-22T10:56:22.402Z,160
2018-02-22T10:57:22.915Z,155
2018-02-22T10:58:22.881Z,150
2018-02-22T10:59:22.607Z,150
2018-02-22T11:00:22.583Z,150
2018-02-22T11:01:22.054Z,150
2018-02-22T11:02:22.936Z,150
2018-02-22T11:03:22.795Z,150
2018-02-22T11:04:22.784Z,160
2018-02-22T11:05:22.748Z,165
2018-02-22T11:06:22.233Z,155
2018-02-22T11:07:22.454Z,150
2018-02-22T11:08:22.432Z,150
2018-02-22T11:09:22.427Z,155
2018-02-22T11:10:22.392Z,150
2018-02-22T11:11:22.117Z,150
2018-02-22T11:12:22.669Z,150
2018-02-22T11:13:22.588Z,150
2018-02-22T11:14:22.327Z,150
2018-02-22T11:15:22.564Z,150
2018-02-22T11:16:22.535Z,150
2018-02-22T11:17:22.006Z,150
2018-02-22T11:18:21.986Z,150
2018-02-22T11:19:21.706Z,150
2018-02-22T11:20:22.467Z,150
2018-02-22T11:21:22.455Z,150
2018-02-22T11:22:22.435Z,150
2018-02-22T11:23:22.407Z,150
2018-02-22T11:24:22.125Z,155
2018-02-22T11:25:22.374Z,150
2018-02-22T11:26:21.831Z,150
2018-02-22T11:27:22.074Z,150
2018-02-22T11:28:22.054Z,145
2018-02-22T11:29:21.783Z,145
2018-02-22T11:30:21.760Z,155
2018-02-22T11:31:21.996Z,170
2018-02-22T11:32:21.727Z,160
2018-02-22T11:33:22.273Z,150
2018-02-22T11:34:22.204Z,145
2018-02-22T11:35:21.922Z,145
2018-02-22T11:36:22.160Z,145
2018-02-22T11:37:21.648Z,145
2018-02-22T11:38:21.865Z,140
2018-02-22T11:39:21.586Z,145
2018-02-22T11:40:21.827Z,140
2018-02-22T11:41:22.075Z,145
2018-02-22T11:42:21.788Z,145
2018-02-22T11:43:21.769Z,145
2018-02-22T11:44:22.016Z,145
2018-02-22T11:45:21.727Z,140
2018-02-22T11:46:21.712Z,140
2018-02-22T11:47:21.689Z,140
2018-02-22T11:48:21.679Z,140
2018-02-22T11:49:21.656Z,140
2018-02-22T11:50:21.898Z,140
2018-02-22T11:51:21.879Z,140
2018-02-22T11:52:21.604Z,140
2018-02-22T11:53:21.592Z,140
2018-02-22T11:54:21.307Z,140
2018-02-22T11:55:21.286Z,140
2018-02-22T11:56:21.785Z,135
2018-02-22T11:57:21.759Z,140
2018-02-22T11:58:21.595Z,115
2018-02-22T11:59:21.480Z,135
2018-02-22T12:00:21.209Z,135
2018-02-22T12:01:21.437Z,135
2018-02-22T12:02:21.667Z,135
2018-02-22T12:03:21.397Z,135
2018-02-22T12:04:21.379Z,135
2018-02-22T12:05:21.098Z,135
2018-02-22T12:06:21.596Z,135
2018-02-22T12:07:21.325Z,135
2018-02-22T12:08:21.303Z,135
2018-02-22T12:09:21.278Z,130
2018-02-22T12:10:21.547Z,130
2018-02-22T12:11:21.329Z,130
2018-02-22T12:12:21.507Z,130
2018-02-22T12:13:20.949Z,130
2018-02-22T12:14:21.186Z,130
2018-02-22T12:15:21.172Z,130
2018-02-22T12:16:21.417Z,130
2018-02-22T12:17:21.388Z,130
2018-02-22T12:18:21.115Z,130
2018-02-22T12:19:21.550Z,130
2018-02-22T12:20:20.564Z,130
2018-02-22T12:21:21.312Z,130
2018-02-22T12:22:21.294Z,130
2018-02-22T12:23:21.279Z,130
2018-02-22T12:24:20.747Z,130
2018-02-22T12:25:20.984Z,130
2018-02-22T12:26:21.246Z,125
2018-02-22T12:27:20.683Z,125
2018-02-22T12:28:21.190Z,125
2018-02-22T12:29:21.169Z,125
2018-02-22T12:30:20.948Z,125
2018-02-22T12:31:20.914Z,125
2018-02-22T12:32:20.588Z,125
2018-02-22T12:33:20.830Z,125
2018-02-22T12:34:21.076Z,125
2018-02-22T12:35:21.051Z,125
2018-02-22T12:36:21.037Z,125
2018-02-22T12:37:20.500Z,125
2018-02-22T12:38:20.996Z,125
2018-02-22T12:39:20.712Z,125
2018-02-22T12:40:20.696Z,120
2018-02-22T12:41:20.934Z,125
2018-02-22T12:42:20.916Z,125
2018-02-22T12:43:20.895Z,125
2018-02-22T12:44:20.896Z,120
2018-02-22T12:45:20.611Z,120
2018-02-22T12:46:20.591Z,120
2018-02-22T12:47:20.816Z,120
2018-02-22T12:48:20.547Z,120
2018-02-22T12:49:20.273Z,120
2018-02-22T12:50:20.255Z,120
2018-02-22T12:51:20.751Z,120
2018-02-22T12:52:20.471Z,120
2018-02-22T12:53:20.712Z,120
2018-02-22T12:54:20.435Z,120
2018-02-22T12:55:20.665Z,120
2018-02-22T12:56:20.719Z,120
2018-02-22T12:57:20.379Z,120
2018-02-22T12:58:52.460Z,120
2018-02-22T12:59:20.078Z,115
2018-02-22T13:00:20.580Z,120
2018-02-22T13:01:20.049Z,120
2018-02-22T13:02:20.277Z,120
2018-02-22T13:03:20.523Z,120
2018-02-22T13:04:19.999Z,120
2018-02-22T13:05:20.485Z,115
2018-02-22T13:06:20.210Z,115
2018-02-22T13:07:20.190Z,115
2018-02-22T13:08:20.429Z,115
2018-02-22T13:09:19.896Z,115
2018-02-22T13:10:20.143Z,115
2018-02-22T13:11:20.113Z,115
2018-02-22T13:12:20.098Z,115
2018-02-22T13:13:19.594Z,115
2018-02-22T13:14:20.320Z,115
2018-02-22T13:15:20.039Z,115
2018-02-22T13:16:20.016Z,115
2018-02-22T13:17:19.997Z,115
2018-02-22T13:18:20.233Z,115
2018-02-22T13:19:20.218Z,115
2018-02-22T13:20:19.427Z,115
2018-02-22T13:21:19.933Z,115
2018-02-22T13:22:19.392Z,115
2018-02-22T13:23:20.194Z,115
2018-02-22T13:24:20.122Z,115
2018-02-22T13:25:19.592Z,115
2018-02-22T13:26:19.825Z,115
2018-02-22T13:27:19.548Z,115
2018-02-22T13:28:20.049Z,115
2018-02-22T13:29:19.774Z,115
2018-02-22T13:30:19.768Z,115
2018-02-22T13:31:20.002Z,115
2018-02-22T13:32:19.717Z,115
2018-02-22T13:33:19.695Z,115
2018-02-22T13:34:19.157Z,115
2018-02-22T13:35:19.661Z,115
2018-02-22T13:36:19.894Z,115
2018-02-22T13:37:19.358Z,115
2018-02-22T13:38:19.339Z,115
2018-02-22T13:39:19.328Z,115
2018-02-22T13:40:19.823Z,115
2018-02-22T13:41:19.543Z,120
2018-02-22T13:42:19.576Z,120
2018-02-22T13:43:19.507Z,125
2018-02-22T13:44:19.225Z,125
2018-02-22T13:45:19.481Z,130
2018-02-22T13:46:19.454Z,125
2018-02-22T13:47:19.169Z,120
2018-02-22T13:48:19.411Z,120
2018-02-22T13:49:19.131Z,115
2018-02-22T13:50:19.625Z,115
2018-02-22T13:51:19.617Z,120
2018-02-22T13:52:19.679Z,125
2018-02-22T13:53:19.311Z,125
2018-02-22T13:54:19.296Z,120
2018-02-22T13:55:19.270Z,115
2018-02-22T13:56:19.510Z,115
2018-02-22T13:57:19.238Z,115
2018-02-22T13:58:19.216Z,120
2018-02-22T13:59:19.316Z,125
2018-02-22T14:00:19.182Z,125
2018-02-22T14:01:19.168Z,120
2018-02-22T14:02:19.138Z,115
2018-02-22T14:03:19.128Z,110
2018-02-22T14:04:19.106Z,110
2018-02-22T14:05:19.085Z,110
2018-02-22T14:06:18.800Z,110
2018-02-22T14:07:19.051Z,110
2018-02-22T14:08:19.024Z,110
2018-02-22T14:09:19.013Z,110
2018-02-22T14:10:19.248Z,115
2018-02-22T14:11:18.710Z,115
2018-02-22T14:12:18.952Z,120
2018-02-22T14:13:19.188Z,115
2018-02-22T14:14:18.645Z,115
2018-02-22T14:15:18.891Z,110